createdAt,value
2022-08-18T00:02:08.075Z,4.25
2022-08-18T00:04:35.999Z,5.35
2022-08-18T00:06:44.589Z,5.50
2022-08-18T00:08:53.445Z,5.10
2022-08-18T00:11:00.733Z,5.15
2022-08-18T00:13:08.011Z,5.18
2022-08-18T00:15:18.888Z,4.80
2022-08-18T00:17:27.046Z,4.82
2022-08-18T00:19:45.962Z,4.93
2022-08-18T00:21:55.380Z,5.03
2022-08-18T00:24:04.146Z,7.75
2022-08-18T00:26:11.426Z,8.68
2022-08-18T00:28:18.764Z,7.60
2022-08-18T00:30:26.255Z,6.32
2022-08-18T00:32:35.176Z,5.40
2022-08-18T00:34:42.251Z,5.53
2022-08-18T00:36:49.191Z,5.55
2022-08-18T00:38:56.370Z,4.90
2022-08-18T00:41:06.259Z,5.13
2022-08-18T00:43:18.766Z,5.22
2022-08-18T00:45:29.740Z,5.22
2022-08-18T00:47:52.297Z,5.30
2022-08-18T00:50:00.375Z,5.40
2022-08-18T00:52:08.543Z,4.22
2022-08-18T00:54:20.574Z,4.68
2022-08-18T00:56:32.928Z,3.88
2022-08-18T00:58:44.261Z,4.60
2022-08-18T01:00:53.492Z,4.50
2022-08-18T01:03:03.546Z,4.22
2022-08-18T01:05:17.172Z,4.13
2022-08-18T01:07:30.803Z,4.15
2022-08-18T01:09:38.403Z,4.40
2022-08-18T01:11:47.729Z,4.00
2022-08-18T01:13:56.349Z,3.92
2022-08-18T01:16:26.673Z,3.75
2022-08-18T01:18:50.187Z,5.30
2022-08-18T01:21:23.478Z,3.88
2022-08-18T01:23:33.675Z,4.35
2022-08-18T01:26:01.648Z,4.40
2022-08-18T01:28:09.337Z,4.72
2022-08-18T01:30:20.412Z,4.80
2022-08-18T01:32:27.803Z,4.75
2022-08-18T01:34:35.087Z,4.03
2022-08-18T01:36:44.579Z,4.43
2022-08-18T01:38:55.639Z,4.65
2022-08-18T01:41:26.111Z,3.95
2022-08-18T01:43:30.232Z,3.92
2022-08-18T01:45:37.568Z,4.20
2022-08-18T01:47:48.093Z,4.40
2022-08-18T01:49:56.331Z,4.22
2022-08-18T01:52:06.023Z,4.18
2022-08-18T01:54:17.758Z,4.20
2022-08-18T01:56:24.955Z,3.58
2022-08-18T01:58:35.153Z,4.20
2022-08-18T02:00:43.759Z,4.13
2022-08-18T02:02:57.993Z,4.25
2022-08-18T02:05:14.409Z,4.55
2022-08-18T02:07:21.647Z,4.00
2022-08-18T02:09:36.754Z,3.60
2022-08-18T02:11:44.049Z,3.65
2022-08-18T02:13:50.911Z,4.10
2022-08-18T02:15:58.258Z,3.60
2022-08-18T02:18:05.586Z,4.00
2022-08-18T02:20:15.278Z,3.58
2022-08-18T02:22:24.040Z,3.72
2022-08-18T02:24:31.285Z,3.80
2022-08-18T02:26:40.112Z,4.13
2022-08-18T02:28:47.633Z,3.85
2022-08-18T02:30:55.082Z,4.00
2022-08-18T02:33:02.817Z,3.67
2022-08-18T02:35:12.373Z,3.90
2022-08-18T02:37:19.430Z,4.30
2022-08-18T02:39:26.615Z,3.53
2022-08-18T02:41:34.308Z,4.00
2022-08-18T02:43:44.668Z,3.60
2022-08-18T02:45:52.154Z,3.78
2022-08-18T02:48:00.208Z,3.70
2022-08-18T02:50:07.705Z,3.47
2022-08-18T02:52:18.510Z,3.58
2022-08-18T02:54:27.343Z,3.83
2022-08-18T02:56:41.829Z,3.67
2022-08-18T02:58:51.632Z,3.83
2022-08-18T03:00:58.708Z,3.35
2022-08-18T03:03:06.357Z,3.45
2022-08-18T03:05:14.770Z,3.17
2022-08-18T03:07:22.511Z,3.35
2022-08-18T03:09:29.684Z,3.05
2022-08-18T03:11:36.971Z,3.03
2022-08-18T03:13:44.413Z,2.97
2022-08-18T03:15:56.793Z,3.08
2022-08-18T03:18:04.307Z,3.25
2022-08-18T03:20:13.077Z,3.22
2022-08-18T03:22:28.675Z,3.40
2022-08-18T03:24:39.218Z,3.78
2022-08-18T03:26:48.700Z,3.13
2022-08-18T03:28:57.929Z,3.40
2022-08-18T03:31:06.853Z,3.38
2022-08-18T03:33:14.134Z,3.28
2022-08-18T03:35:21.872Z,3.17
2022-08-18T03:37:29.014Z,3.10
2022-08-18T03:39:36.276Z,3.05
2022-08-18T03:41:59.589Z,3.20
2022-08-18T03:44:08.318Z,3.25
2022-08-18T03:46:18.622Z,3.30
2022-08-18T03:48:26.468Z,2.80
2022-08-18T03:50:33.752Z,2.78
2022-08-18T03:52:41.429Z,3.20
2022-08-18T03:54:49.757Z,3.30
2022-08-18T03:56:57.298Z,3.05
2022-08-18T03:59:07.191Z,3.50
2022-08-18T04:01:23.674Z,3.40
2022-08-18T04:03:34.823Z,3.22
2022-08-18T04:05:44.561Z,3.15
2022-08-18T04:07:51.886Z,3.33
2022-08-18T04:09:59.180Z,2.97
2022-08-18T04:12:16.404Z,2.90
2022-08-18T04:14:27.053Z,2.90
2022-08-18T04:16:37.467Z,2.83
2022-08-18T04:18:44.694Z,3.40
2022-08-18T04:20:59.172Z,3.00
2022-08-18T04:23:07.052Z,4.38
2022-08-18T04:25:16.786Z,4.28
2022-08-18T04:27:24.692Z,3.47
2022-08-18T04:29:32.174Z,3.05
2022-08-18T04:31:41.767Z,3.08
2022-08-18T04:33:48.738Z,3.05
2022-08-18T04:35:56.279Z,3.17
2022-08-18T04:38:03.464Z,3.30
2022-08-18T04:40:15.882Z,3.42
2022-08-18T04:42:23.353Z,2.55
2022-08-18T04:44:30.898Z,2.83
2022-08-18T04:46:42.895Z,3.20
2022-08-18T04:48:50.121Z,3.05
2022-08-18T04:50:57.357Z,3.20
2022-08-18T04:53:20.666Z,3.00
2022-08-18T04:55:27.890Z,3.22
2022-08-18T04:57:35.898Z,2.85
2022-08-18T04:59:47.326Z,3.45
2022-08-18T05:01:56.197Z,3.47
2022-08-18T05:04:03.685Z,3.10
2022-08-18T05:06:11.585Z,2.75
2022-08-18T05:08:19.026Z,3.38
2022-08-18T05:10:26.005Z,2.88
2022-08-18T05:12:33.587Z,3.28
2022-08-18T05:14:41.026Z,3.58
2022-08-18T05:16:50.153Z,3.15
2022-08-18T05:19:00.869Z,3.10
2022-08-18T05:21:15.533Z,3.10
2022-08-18T05:23:23.360Z,3.00
2022-08-18T05:25:30.910Z,3.30
2022-08-18T05:27:39.269Z,3.03
2022-08-18T05:29:46.557Z,2.97
2022-08-18T05:31:55.120Z,2.80
2022-08-18T05:34:05.225Z,2.80
2022-08-18T05:36:23.630Z,2.92
2022-08-18T05:38:41.391Z,3.00
2022-08-18T05:40:51.033Z,2.78
2022-08-18T05:42:59.913Z,3.22
2022-08-18T05:45:12.065Z,3.08
2022-08-18T05:47:25.790Z,2.53
2022-08-18T05:49:35.478Z,2.78
2022-08-18T05:51:46.758Z,2.50
2022-08-18T05:54:10.937Z,2.38
2022-08-18T05:56:38.086Z,2.92
2022-08-18T05:58:49.015Z,2.90
2022-08-18T06:00:59.921Z,2.83
2022-08-18T06:03:16.173Z,2.75
2022-08-18T06:05:31.445Z,2.70
2022-08-18T06:07:42.875Z,2.88
2022-08-18T06:09:54.043Z,2.88
2022-08-18T06:12:10.039Z,2.95
2022-08-18T06:14:17.675Z,3.00
2022-08-18T06:16:31.368Z,3.35
2022-08-18T06:18:48.275Z,2.50
2022-08-18T06:21:25.401Z,2.90
2022-08-18T06:23:39.455Z,2.95
2022-08-18T06:26:00.912Z,2.55
2022-08-18T06:28:14.340Z,2.50
2022-08-18T06:30:24.664Z,2.60
2022-08-18T06:33:10.895Z,2.58
2022-08-18T06:35:23.782Z,2.40
2022-08-18T06:37:57.364Z,2.78
2022-08-18T06:40:06.390Z,2.90
2022-08-18T06:42:13.663Z,2.80
2022-08-18T06:44:27.964Z,2.78
2022-08-18T06:46:44.568Z,2.67
2022-08-18T06:48:57.336Z,2.25
2022-08-18T06:51:08.100Z,2.15
2022-08-18T06:53:26.848Z,2.10
2022-08-18T06:55:40.391Z,2.38
2022-08-18T06:58:00.680Z,2.13
2022-08-18T07:00:24.038Z,1.83
2022-08-18T07:02:49.345Z,2.13
2022-08-18T07:05:09.018Z,2.58
2022-08-18T07:07:39.180Z,2.10
2022-08-18T07:09:50.203Z,2.00
2022-08-18T07:12:07.625Z,2.10
2022-08-18T07:14:22.431Z,2.50
2022-08-18T07:16:57.130Z,2.20
2022-08-18T07:19:11.559Z,2.08
2022-08-18T07:21:29.967Z,2.00
2022-08-18T07:23:39.762Z,2.17
2022-08-18T07:25:50.052Z,2.00
2022-08-18T07:27:58.462Z,2.10
2022-08-18T07:30:08.408Z,1.67
2022-08-18T07:32:25.225Z,2.20
2022-08-18T07:34:38.596Z,1.70
2022-08-18T07:36:51.740Z,1.98
2022-08-18T07:39:03.818Z,1.80
2022-08-18T07:41:17.710Z,1.85
2022-08-18T07:43:30.004Z,1.98
2022-08-18T07:45:41.076Z,1.83
2022-08-18T07:47:57.474Z,1.90
2022-08-18T07:50:27.014Z,1.60
2022-08-18T07:52:44.527Z,2.00
2022-08-18T07:55:06.690Z,1.73
2022-08-18T07:57:26.720Z,1.45
2022-08-18T07:59:38.258Z,1.80
2022-08-18T08:01:51.749Z,1.60
2022-08-18T08:04:07.204Z,1.50
2022-08-18T08:06:22.273Z,1.70
2022-08-18T08:08:38.883Z,1.70
2022-08-18T08:10:53.888Z,1.80
2022-08-18T08:13:13.411Z,1.67
2022-08-18T08:15:28.528Z,1.60
2022-08-18T08:17:42.470Z,1.40
2022-08-18T08:20:09.621Z,1.20
2022-08-18T08:22:22.841Z,1.27
2022-08-18T08:24:37.803Z,1.40
2022-08-18T08:26:54.716Z,1.40
2022-08-18T08:29:17.514Z,1.33
2022-08-18T08:31:38.592Z,1.77
2022-08-18T08:33:52.976Z,1.58
2022-08-18T08:36:07.894Z,1.55
2022-08-18T08:38:40.250Z,1.50
2022-08-18T08:40:54.662Z,1.85
2022-08-18T08:43:07.469Z,1.25
2022-08-18T08:45:19.567Z,1.80
2022-08-18T08:47:33.614Z,1.85
2022-08-18T08:49:45.715Z,1.63
2022-08-18T08:54:18.199Z,1.90
2022-08-18T08:56:32.538Z,1.85
2022-08-18T08:58:46.239Z,1.60
2022-08-18T09:00:56.018Z,1.90
2022-08-18T09:03:30.738Z,1.73
2022-08-18T09:05:43.662Z,1.90
2022-08-18T09:08:26.279Z,1.48
2022-08-18T09:11:03.628Z,1.83
2022-08-18T09:13:36.154Z,1.83
2022-08-18T09:16:03.134Z,1.90
2022-08-18T09:18:49.960Z,1.98
2022-08-18T09:21:21.092Z,1.85
2022-08-18T09:23:34.217Z,1.52
2022-08-18T09:25:50.874Z,1.63
2022-08-18T09:28:12.808Z,1.95
2022-08-18T09:30:49.292Z,2.08
2022-08-18T09:35:58.562Z,2.35
2022-08-18T09:38:29.965Z,2.13
2022-08-18T09:41:03.599Z,2.00
2022-08-18T09:43:20.328Z,2.13
2022-08-18T09:45:59.864Z,2.50
2022-08-18T09:48:28.236Z,2.15
2022-08-18T09:51:02.997Z,1.92
2022-08-18T09:53:45.124Z,2.13
2022-08-18T09:56:05.448Z,2.10
2022-08-18T09:58:23.004Z,2.30
2022-08-18T10:00:34.255Z,2.25
2022-08-18T10:03:30.966Z,2.03
2022-08-18T10:05:39.877Z,2.00
2022-08-18T10:07:50.586Z,2.03
2022-08-18T10:10:58.801Z,2.42
2022-08-18T10:13:01.474Z,2.35
2022-08-18T10:15:33.012Z,2.72
2022-08-18T10:18:04.632Z,2.17
2022-08-18T10:20:29.735Z,2.03
2022-08-18T10:22:44.597Z,2.05
2022-08-18T10:27:49.396Z,2.20
2022-08-18T10:29:59.150Z,1.80
2022-08-18T10:32:25.205Z,2.28
2022-08-18T10:34:51.978Z,2.80
2022-08-18T10:37:06.477Z,2.70
2022-08-18T10:39:17.370Z,1.90
2022-08-18T10:41:31.883Z,2.13
2022-08-18T10:43:55.492Z,2.20
2022-08-18T10:46:25.345Z,2.60
2022-08-18T10:48:35.716Z,2.30
2022-08-18T10:50:57.280Z,2.55
2022-08-18T10:55:53.423Z,3.08
2022-08-18T10:58:20.627Z,2.90
2022-08-18T11:00:47.829Z,2.90
2022-08-18T11:03:29.949Z,2.33
2022-08-18T11:05:35.724Z,2.33
2022-08-18T11:07:47.871Z,2.92
2022-08-18T11:10:28.444Z,2.30
2022-08-18T11:13:09.228Z,2.63
2022-08-18T11:15:24.479Z,3.05
2022-08-18T11:17:43.127Z,2.80
2022-08-18T11:19:50.770Z,2.88
2022-08-18T11:21:58.411Z,3.25
2022-08-18T11:24:11.127Z,4.07
2022-08-18T11:26:22.454Z,3.83
2022-08-18T11:28:34.657Z,3.35
2022-08-18T11:30:47.260Z,5.05
2022-08-18T11:32:56.144Z,5.20
2022-08-18T11:35:08.533Z,4.38
2022-08-18T11:37:28.210Z,3.17
2022-08-18T11:39:58.972Z,3.22
2022-08-18T11:42:15.994Z,3.03
2022-08-18T11:44:35.985Z,3.00
2022-08-18T11:46:43.780Z,3.47
2022-08-18T11:48:59.562Z,3.30
2022-08-18T11:51:13.357Z,3.55
2022-08-18T11:53:27.092Z,3.20
2022-08-18T11:55:36.217Z,2.70
2022-08-18T11:57:58.543Z,3.40
2022-08-18T12:01:02.900Z,3.53
2022-08-18T12:03:16.665Z,3.45
2022-08-18T12:05:23.789Z,3.90
2022-08-18T12:07:34.349Z,3.70
2022-08-18T12:10:15.949Z,4.28
2022-08-18T12:12:19.639Z,3.30
2022-08-18T12:14:35.530Z,3.47
2022-08-18T12:16:46.422Z,3.97
2022-08-18T12:18:53.753Z,4.00
2022-08-18T12:21:03.288Z,3.40
2022-08-18T12:23:10.764Z,3.88
2022-08-18T12:25:24.877Z,3.13
2022-08-18T12:27:33.690Z,3.92
2022-08-18T12:29:43.481Z,3.42
2022-08-18T12:31:53.147Z,3.40
2022-08-18T12:34:01.467Z,3.60
2022-08-18T12:36:09.871Z,3.72
2022-08-18T12:38:21.557Z,3.50
2022-08-18T12:40:29.409Z,4.15
2022-08-18T12:42:37.508Z,4.25
2022-08-18T12:44:46.388Z,4.00
2022-08-18T12:46:53.969Z,3.25
2022-08-18T12:49:01.147Z,3.50
2022-08-18T12:51:14.629Z,3.30
2022-08-18T12:53:30.048Z,3.63
2022-08-18T12:55:49.931Z,3.33
2022-08-18T12:57:57.380Z,3.58
2022-08-18T13:00:09.312Z,3.40
2022-08-18T13:02:23.932Z,4.53
2022-08-18T13:04:32.946Z,3.97
2022-08-18T13:06:50.331Z,3.60
2022-08-18T13:09:16.212Z,3.67
2022-08-18T13:11:36.017Z,4.03
2022-08-18T13:13:44.336Z,4.80
2022-08-18T13:16:01.119Z,4.03
2022-08-18T13:18:08.923Z,4.15
2022-08-18T13:20:22.354Z,4.53
2022-08-18T13:22:32.223Z,4.70
2022-08-18T13:24:40.350Z,4.07
2022-08-18T13:26:49.430Z,4.43
2022-08-18T13:28:59.385Z,4.78
2022-08-18T13:31:08.909Z,4.80
2022-08-18T13:33:35.353Z,5.35
2022-08-18T13:35:44.629Z,5.13
2022-08-18T13:37:52.325Z,5.53
2022-08-18T13:39:59.378Z,5.82
2022-08-18T13:42:28.547Z,4.95
2022-08-18T13:44:36.402Z,4.20
2022-08-18T13:46:48.448Z,4.82
2022-08-18T13:48:55.476Z,5.13
2022-08-18T13:51:03.926Z,5.20
2022-08-18T13:53:15.515Z,5.38
2022-08-18T13:57:28.952Z,6.10
2022-08-18T13:59:37.161Z,5.85
2022-08-18T14:01:56.453Z,5.47
2022-08-18T14:04:03.559Z,5.72
2022-08-18T14:06:13.013Z,5.43
2022-08-18T14:08:20.936Z,5.15
2022-08-18T14:10:27.988Z,5.60
2022-08-18T14:12:36.224Z,5.82
2022-08-18T14:14:46.531Z,6.40
2022-08-18T14:16:55.862Z,5.80
2022-08-18T14:19:22.696Z,5.30
2022-08-18T14:21:46.778Z,4.68
2022-08-18T14:24:14.322Z,4.32
2022-08-18T14:26:52.802Z,4.25
2022-08-18T14:29:00.757Z,3.95
2022-08-18T14:31:13.006Z,4.78
2022-08-18T14:33:29.211Z,3.53
2022-08-18T14:36:06.293Z,3.25
2022-08-18T14:38:17.199Z,3.45
2022-08-18T14:40:24.724Z,3.20
2022-08-18T14:42:41.148Z,3.80
2022-08-18T14:44:49.549Z,3.42
2022-08-18T14:46:58.657Z,3.65
2022-08-18T14:49:07.881Z,3.30
2022-08-18T14:51:15.330Z,3.08
2022-08-18T14:53:24.495Z,3.03
2022-08-18T14:55:34.139Z,2.97
2022-08-18T14:57:41.728Z,3.60
2022-08-18T14:59:55.767Z,3.30
2022-08-18T15:04:19.335Z,3.88
2022-08-18T15:06:27.108Z,3.25
2022-08-18T15:08:36.349Z,3.50
2022-08-18T15:10:43.705Z,3.38
2022-08-18T15:12:56.058Z,3.80
2022-08-18T15:15:02.986Z,3.28
2022-08-18T15:17:13.157Z,2.88
2022-08-18T15:19:58.265Z,2.75
2022-08-18T15:22:04.223Z,2.53
2022-08-18T15:24:28.352Z,2.35
2022-08-18T15:26:36.957Z,2.33
2022-08-18T15:28:47.777Z,2.40
2022-08-18T15:33:31.209Z,2.17
2022-08-18T15:35:44.320Z,2.70
2022-08-18T15:40:30.409Z,1.88
2022-08-18T15:42:38.456Z,1.85
2022-08-18T15:44:48.453Z,1.80
2022-08-18T15:46:59.585Z,1.77
2022-08-18T15:49:14.876Z,1.98
2022-08-18T15:51:24.345Z,2.03
2022-08-18T15:53:32.192Z,1.95
2022-08-18T15:55:43.164Z,1.98
2022-08-18T15:57:57.920Z,2.15
2022-08-18T16:00:05.605Z,1.92
2022-08-18T16:02:19.268Z,2.40
2022-08-18T16:04:26.629Z,1.63
2022-08-18T16:06:37.496Z,2.20
2022-08-18T16:08:46.418Z,2.33
2022-08-18T16:10:54.733Z,1.85
2022-08-18T16:13:05.703Z,1.90
2022-08-18T16:17:31.728Z,1.98
2022-08-18T16:19:39.121Z,2.20
2022-08-18T16:21:48.096Z,2.20
2022-08-18T16:23:56.821Z,1.67
2022-08-18T16:26:05.727Z,2.10
2022-08-18T16:28:13.644Z,1.70
2022-08-18T16:30:23.734Z,1.73
2022-08-18T16:32:31.071Z,1.92
2022-08-18T16:34:38.464Z,1.60
2022-08-18T16:36:47.291Z,1.73
2022-08-18T16:38:58.183Z,1.92
2022-08-18T16:41:13.576Z,1.88
2022-08-18T16:43:20.957Z,2.05
2022-08-18T16:45:28.822Z,2.00
2022-08-18T16:47:40.198Z,2.05
2022-08-18T16:49:49.779Z,2.10
2022-08-18T16:51:58.907Z,2.00
2022-08-18T16:54:06.599Z,2.15
2022-08-18T16:56:18.398Z,2.20
2022-08-18T16:58:42.117Z,2.20
2022-08-18T17:01:05.324Z,2.30
2022-08-18T17:03:29.697Z,2.22
2022-08-18T17:05:37.041Z,2.30
2022-08-18T17:07:46.213Z,2.17
2022-08-18T17:09:54.012Z,1.92
2022-08-18T17:12:01.395Z,2.30
2022-08-18T17:14:10.320Z,2.05
2022-08-18T17:16:18.680Z,2.30
2022-08-18T17:18:26.116Z,2.00
2022-08-18T17:20:33.355Z,2.30
2022-08-18T17:22:40.565Z,2.30
2022-08-18T17:24:50.535Z,2.10
2022-08-18T17:27:03.965Z,2.10
2022-08-18T17:29:23.936Z,2.03
2022-08-18T17:31:31.382Z,2.22
2022-08-18T17:33:41.883Z,2.35
2022-08-18T17:35:50.198Z,2.60
2022-08-18T17:38:02.515Z,2.58
2022-08-18T17:40:22.275Z,2.42
2022-08-18T17:42:31.711Z,2.78
2022-08-18T17:44:46.343Z,2.67
2022-08-18T17:47:01.693Z,2.80
2022-08-18T17:49:14.087Z,2.67
2022-08-18T17:51:43.412Z,3.13
2022-08-18T17:53:52.618Z,2.70
2022-08-18T17:56:06.512Z,2.90
2022-08-18T17:58:21.573Z,3.33
2022-08-18T18:00:28.909Z,3.10
2022-08-18T18:02:36.399Z,3.10
2022-08-18T18:04:45.633Z,3.30
2022-08-18T18:06:54.805Z,2.55
2022-08-18T18:09:04.700Z,3.38
2022-08-18T18:11:15.929Z,3.30
2022-08-18T18:13:29.306Z,3.75
2022-08-18T18:15:41.047Z,3.80
2022-08-18T18:17:48.128Z,3.55
2022-08-18T18:20:00.895Z,3.30
2022-08-18T18:22:11.650Z,4.03
2022-08-18T18:24:24.116Z,3.15
2022-08-18T18:26:36.769Z,3.47
2022-08-18T18:28:44.469Z,3.53
2022-08-18T18:30:51.757Z,3.72
2022-08-18T18:33:03.997Z,3.30
2022-08-18T18:35:21.060Z,3.40
2022-08-18T18:37:34.180Z,3.38
2022-08-18T18:39:41.701Z,3.80
2022-08-18T18:41:52.691Z,3.70
2022-08-18T18:44:10.727Z,3.47
2022-08-18T18:46:31.428Z,3.42
2022-08-18T18:48:51.919Z,3.42
2022-08-18T18:51:11.043Z,3.80
2022-08-18T18:53:32.150Z,3.33
2022-08-18T18:55:47.418Z,3.13
2022-08-18T18:58:10.463Z,3.47
2022-08-18T19:00:22.153Z,3.28
2022-08-18T19:02:46.396Z,3.45
2022-08-18T19:05:00.476Z,3.03
2022-08-18T19:07:20.845Z,3.22
2022-08-18T19:09:36.555Z,3.22
2022-08-18T19:11:59.347Z,3.20
2022-08-18T19:14:18.817Z,3.10
2022-08-18T19:16:30.406Z,3.15
2022-08-18T19:22:02.396Z,3.08
2022-08-18T19:23:37.473Z,3.20
2022-08-18T19:25:53.761Z,3.38
2022-08-18T19:28:06.987Z,2.97
2022-08-18T19:30:18.822Z,3.30
2022-08-18T19:34:51.552Z,2.60
2022-08-18T19:37:06.754Z,2.90
2022-08-18T19:39:19.604Z,2.80
2022-08-18T19:41:38.581Z,3.25
2022-08-18T19:43:53.380Z,3.50
2022-08-18T19:46:10.476Z,3.22
2022-08-18T19:48:23.206Z,3.63
2022-08-18T19:50:37.388Z,3.50
2022-08-18T19:53:00.407Z,3.85
2022-08-18T19:55:17.866Z,3.30
2022-08-18T19:57:38.054Z,3.50
2022-08-18T20:00:11.345Z,3.15
2022-08-18T20:02:41.802Z,2.95
2022-08-18T20:05:06.364Z,2.80
2022-08-18T20:07:26.917Z,2.90
2022-08-18T20:09:53.187Z,3.22
2022-08-18T20:12:13.792Z,2.88
2022-08-18T20:14:22.601Z,3.03
2022-08-18T20:16:43.252Z,3.17
2022-08-18T20:18:55.554Z,3.05
2022-08-18T20:21:41.197Z,3.23
2022-08-18T20:24:03.470Z,3.30
2022-08-18T20:26:43.470Z,3.30
2022-08-18T20:28:50.554Z,3.13
2022-08-18T20:31:07.261Z,3.45
2022-08-18T20:33:21.502Z,3.47
2022-08-18T20:35:34.163Z,4.00
2022-08-18T20:37:43.605Z,3.45
2022-08-18T20:39:55.515Z,3.25
2022-08-18T20:42:03.341Z,2.85
2022-08-18T20:44:42.776Z,3.33
2022-08-18T20:47:00.963Z,2.90
2022-08-18T20:49:23.175Z,3.50
2022-08-18T20:51:36.430Z,3.63
2022-08-18T20:54:14.070Z,4.05
2022-08-18T20:56:32.642Z,3.80
2022-08-18T20:58:58.592Z,3.60
2022-08-18T21:01:06.015Z,3.95
2022-08-18T21:03:16.842Z,3.40
2022-08-18T21:05:29.401Z,3.23
2022-08-18T21:07:41.294Z,3.63
2022-08-18T21:09:56.017Z,3.10
2022-08-18T21:12:03.438Z,3.38
2022-08-18T21:14:10.702Z,3.03
2022-08-18T21:16:38.623Z,3.70
2022-08-18T21:18:54.433Z,3.45
2022-08-18T21:21:04.074Z,3.38
2022-08-18T21:23:15.190Z,2.92
2022-08-18T21:25:22.683Z,3.50
2022-08-18T21:27:31.596Z,3.40
2022-08-18T21:29:47.442Z,3.65
2022-08-18T21:32:08.337Z,3.40
2022-08-18T21:34:19.572Z,3.40
2022-08-18T21:36:32.478Z,3.35
2022-08-18T21:38:42.011Z,3.20
2022-08-18T21:41:09.572Z,3.30
2022-08-18T21:43:35.592Z,3.28
2022-08-18T21:45:49.422Z,3.38
2022-08-18T21:48:00.659Z,3.60
2022-08-18T21:50:17.212Z,3.38
2022-08-18T21:52:27.771Z,3.47
2022-08-18T21:54:37.615Z,3.20
2022-08-18T21:56:48.844Z,3.17
2022-08-18T21:59:09.499Z,3.53
2022-08-18T22:01:23.789Z,4.20
2022-08-18T22:03:31.532Z,3.90
2022-08-18T22:05:58.994Z,4.97
2022-08-18T22:08:06.886Z,4.95
2022-08-18T22:10:43.405Z,4.15
2022-08-18T22:13:13.379Z,4.95
2022-08-18T22:15:22.862Z,5.38
2022-08-18T22:17:33.731Z,5.18
2022-08-18T22:19:40.969Z,5.13
2022-08-18T22:21:51.007Z,4.80
2022-08-18T22:24:14.367Z,4.43
2022-08-18T22:26:29.333Z,4.47
2022-08-18T22:28:37.948Z,4.43
2022-08-18T22:30:45.233Z,3.97
2022-08-18T22:32:52.407Z,4.55
2022-08-18T22:34:59.598Z,3.72
2022-08-18T22:37:11.039Z,4.30
2022-08-18T22:39:27.372Z,4.20
2022-08-18T22:41:36.870Z,4.10
2022-08-18T22:43:44.145Z,3.53
2022-08-18T22:45:51.432Z,3.72
2022-08-18T22:47:58.561Z,3.83
2022-08-18T22:50:06.046Z,3.90
2022-08-18T22:52:29.902Z,4.07
2022-08-18T22:54:38.228Z,4.35
2022-08-18T22:56:53.795Z,4.28
2022-08-18T22:59:13.564Z,4.43
2022-08-18T23:01:24.405Z,4.13
2022-08-18T23:03:31.873Z,3.88
2022-08-18T23:05:48.848Z,4.18
2022-08-18T23:07:55.931Z,4.00
2022-08-18T23:10:03.324Z,4.10
2022-08-18T23:12:17.614Z,3.83
2022-08-18T23:14:25.056Z,4.20
2022-08-18T23:16:32.741Z,4.25
2022-08-18T23:18:39.874Z,4.40
2022-08-18T23:20:48.957Z,3.95
2022-08-18T23:22:56.138Z,4.60
2022-08-18T23:25:08.781Z,5.38
2022-08-18T23:27:19.364Z,5.95
2022-08-18T23:29:26.691Z,7.13
2022-08-18T23:31:33.924Z,6.68
2022-08-18T23:33:42.692Z,6.10
2022-08-18T23:35:49.934Z,6.03
2022-08-18T23:37:57.771Z,5.85
2022-08-18T23:40:05.075Z,6.35
2022-08-18T23:42:14.342Z,6.63
2022-08-18T23:44:27.243Z,7.20
2022-08-18T23:46:36.285Z,7.40
2022-08-18T23:48:51.397Z,6.13
2022-08-18T23:51:04.066Z,7.72
2022-08-18T23:53:11.652Z,7.32
2022-08-18T23:55:18.928Z,6.75
2022-08-18T23:57:26.167Z,5.88
2022-08-18T23:59:34.930Z,5.63
